Time;durP1;ratioP1;P1;durP2;ratioP2;P2;SDS_P1;SDS_P2;PMS_P1;PMS_P2;Temp;Humidity;BMP_temperature;BMP_pressure;BME280_temperature;BME280_humidity;BME280_pressure;Samples;Min_cycle;Max_cycle;Signal;HPM_P1;HPM_P2
2022/02/02 00:00:34;;;;;;;6.80;1.00;;;6.50;88.30;;;;;;5049806;28;20048;-72
2022/02/02 00:03:07;;;;;;;6.75;1.20;;;6.50;88.30;;;;;;5053553;28;20923;-72
2022/02/02 00:05:52;;;;;;;4.95;1.35;;;6.50;88.20;;;;;;5053263;28;20045;-71
2022/02/02 00:08:25;;;;;;;7.45;1.33;;;6.50;88.20;;;;;;5026004;28;20053;-72
2022/02/02 00:11:58;;;;;;;5.67;1.22;;;6.40;88.10;;;;;;2963510;28;10218935;-71
2022/02/02 00:17:09;;;;;;;3.47;1.25;;;6.40;87.80;;;;;;5028930;28;20056;-72
2022/02/02 00:19:42;;;;;;;5.88;1.20;;;6.40;87.70;;;;;;5032048;28;20570;-72
2022/02/02 00:22:13;;;;;;;4.85;1.20;;;6.40;87.70;;;;;;5031707;28;20053;-72
2022/02/02 00:25:06;;;;;;;3.80;0.93;;;6.40;87.20;;;;;;5031848;28;20557;-72
2022/02/02 00:27:35;;;;;;;9.93;1.75;;;6.40;87.00;;;;;;5033237;28;20048;-72
2022/02/02 00:30:04;;;;;;;6.00;1.20;;;6.40;86.50;;;;;;5034732;28;20667;-74
2022/02/02 00:32:50;;;;;;;1.83;0.85;;;6.40;86.50;;;;;;5011233;28;1103802;-72
2022/02/02 00:35:21;;;;;;;7.13;1.05;;;6.40;86.40;;;;;;5054271;28;20072;-72
2022/02/02 00:37:48;;;;;;;8.75;2.88;;;6.40;86.20;;;;;;5055595;28;20090;-73
2022/02/02 00:40:16;;;;;;;8.20;1.40;;;6.40;86.40;;;;;;5054364;28;20490;-71
2022/02/02 00:42:45;;;;;;;6.07;1.35;;;6.30;86.40;;;;;;5053110;28;20040;-72
2022/02/02 00:45:12;;;;;;;3.22;1.05;;;6.30;86.50;;;;;;5054057;28;20131;-71
2022/02/02 00:47:40;;;;;;;4.63;1.70;;;6.30;86.60;;;;;;5051420;28;20167;-73
2022/02/02 00:50:08;;;;;;;8.30;2.45;;;6.20;86.60;;;;;;5055387;28;20057;-72
2022/02/02 00:52:35;;;;;;;3.88;1.42;;;6.20;86.70;;;;;;5055022;28;20063;-72
2022/02/02 00:55:02;;;;;;;6.40;1.27;;;6.20;86.70;;;;;;5055649;28;20040;-71
2022/02/02 00:57:30;;;;;;;5.97;1.48;;;6.20;86.80;;;;;;5045752;28;20044;-71
2022/02/02 00:59:58;;;;;;;5.30;1.60;;;6.20;86.80;;;;;;5051724;28;20674;-71
2022/02/02 01:02:25;;;;;;;7.25;1.30;;;6.20;86.90;;;;;;5051409;28;20052;-71
2022/02/02 01:04:52;;;;;;;2.35;1.05;;;6.20;86.90;;;;;;5050139;28;20410;-72
2022/02/02 01:07:27;;;;;;;2.97;0.90;;;6.10;87.00;;;;;;5052776;28;20040;-73
2022/02/02 01:10:05;;;;;;;7.18;1.73;;;6.20;87.10;;;;;;5054864;28;20482;-72
2022/02/02 01:12:44;;;;;;;6.13;1.90;;;6.10;87.10;;;;;;5054333;28;20048;-72
2022/02/02 01:20:56;;;;;;;5.45;1.70;;;6.10;87.00;;;;;;5052698;28;20052;-72
2022/02/02 01:28:55;;;;;;;7.53;1.42;;;6.10;86.90;;;;;;5052688;28;20060;-72
2022/02/02 01:31:22;;;;;;;6.80;2.00;;;6.10;86.90;;;;;;5047179;28;20044;-72
2022/02/02 01:33:49;;;;;;;6.00;1.40;;;6.10;86.90;;;;;;5053110;28;20114;-72
2022/02/02 01:36:17;;;;;;;7.65;2.80;;;6.10;86.90;;;;;;5048891;28;20048;-72
2022/02/02 01:38:46;;;;;;;6.80;1.50;;;6.20;86.90;;;;;;5045435;28;20126;-73
2022/02/02 01:41:21;;;;;;;10.30;1.55;;;6.20;86.70;;;;;;5048242;28;20048;-73
2022/02/02 01:43:56;;;;;;;8.07;1.88;;;6.20;86.60;;;;;;5048164;28;20163;-73
2022/02/02 01:46:27;;;;;;;8.68;1.42;;;6.20;86.50;;;;;;5050696;28;20136;-72
2022/02/02 01:49:01;;;;;;;6.18;1.80;;;6.20;86.50;;;;;;5048056;28;20052;-72
2022/02/02 01:51:47;;;;;;;9.30;1.98;;;6.30;86.50;;;;;;5044576;28;20360;-73
2022/02/02 01:56:55;;;;;;;4.53;1.40;;;6.30;86.60;;;;;;5043258;28;20469;-72
2022/02/02 01:59:35;;;;;;;5.18;1.20;;;6.30;86.60;;;;;;5045564;28;20051;-72
2022/02/02 02:02:04;;;;;;;5.97;1.40;;;6.30;86.70;;;;;;5045982;28;20593;-74
2022/02/02 02:04:31;;;;;;;6.53;1.40;;;6.30;86.70;;;;;;5048967;28;20425;-73
2022/02/02 02:06:58;;;;;;;6.15;1.33;;;6.30;86.80;;;;;;5045338;28;20048;-72
2022/02/02 02:09:26;;;;;;;8.35;2.15;;;6.30;86.90;;;;;;4974356;28;26202;-73
2022/02/02 02:12:02;;;;;;;2.93;0.86;;;6.30;86.90;;;;;;1200522;28;10023029;-73
2022/02/02 02:14:46;;;;;;;4.38;1.35;;;6.30;87.00;;;;;;5044145;28;20504;-72
2022/02/02 02:17:14;;;;;;;4.90;1.63;;;6.30;87.00;;;;;;5044144;28;20975;-72
2022/02/02 02:19:46;;;;;;;6.97;1.35;;;6.30;87.00;;;;;;5044119;28;20051;-72
2022/02/02 02:22:16;;;;;;;7.30;1.45;;;6.30;87.00;;;;;;5046791;28;20151;-71
2022/02/02 02:24:45;;;;;;;11.23;1.75;;;6.30;87.00;;;;;;5040896;28;20510;-73
2022/02/02 02:27:16;;;;;;;7.13;1.20;;;6.30;86.90;;;;;;5044626;28;20147;-73
2022/02/02 02:32:51;;;;;;;5.03;1.40;;;6.30;86.90;;;;;;5046021;28;20044;-72
2022/02/02 02:35:38;;;;;;;7.25;1.95;;;6.30;86.90;;;;;;5049988;28;20315;-72
2022/02/02 02:38:43;;;;;;;3.85;1.38;;;6.30;87.00;;;;;;5047375;28;20059;-72
2022/02/02 02:57:44;;;;;;;5.22;1.33;;;6.30;87.00;;;;;;5041746;28;20052;-73
2022/02/02 03:00:31;;;;;;;4.60;1.08;;;6.30;86.90;;;;;;5048510;28;20505;-71
2022/02/02 03:30:52;;;;;;;6.95;1.10;;;6.40;86.00;;;;;;5053020;28;20048;-72
2022/02/02 03:50:12;;;;;;;9.18;1.52;;;6.40;85.70;;;;;;5054067;28;20056;-72
2022/02/02 03:55:39;;;;;;;3.72;1.73;;;6.40;85.80;;;;;;5055954;28;20054;-71
2022/02/02 03:58:20;;;;;;;3.10;1.17;;;6.40;85.70;;;;;;5046231;28;20614;-72
2022/02/02 04:01:10;;;;;;;4.45;1.05;;;6.40;85.50;;;;;;5053312;28;20049;-72
2022/02/02 04:06:57;;;;;;;7.53;1.58;;;6.40;85.40;;;;;;5063860;28;20572;-72
2022/02/02 04:09:37;;;;;;;2.05;1.95;;;6.40;85.20;;;;;;3895029;28;10023589;-72
2022/02/02 04:12:12;;;;;;;5.63;1.50;;;6.40;85.00;;;;;;2077214;28;10002061;-72
2022/02/02 04:15:57;;;;;;;7.95;1.23;;;6.40;84.80;;;;;;5024853;28;20053;-73
2022/02/02 04:37:18;;;;;;;10.15;1.73;;;6.40;84.80;;;;;;5023990;28;20077;-73
2022/02/02 04:37:45;;;;;;;4.40;1.00;;;6.40;84.20;;;;;;5020296;28;20111;-73
2022/02/02 04:51:33;;;;;;;5.57;1.05;;;6.40;83.30;;;;;;5022272;28;20064;-72
2022/02/02 04:54:18;;;;;;;3.53;1.45;;;6.40;83.30;;;;;;5020497;28;20060;-73
2022/02/02 04:59:40;;;;;;;6.22;1.65;;;6.40;83.20;;;;;;5005725;28;20372;-72
2022/02/02 05:07:48;;;;;;;7.65;1.38;;;6.40;83.10;;;;;;4959993;28;20052;-73
2022/02/02 05:10:24;;;;;;;10.32;1.77;;;6.30;83.30;;;;;;5021137;28;20093;-72
2022/02/02 05:18:42;;;;;;;12.18;2.30;;;6.30;83.50;;;;;;5008944;28;20049;-72
2022/02/02 05:21:34;;;;;;;5.95;1.25;;;6.30;83.40;;;;;;5009458;28;20056;-72
2022/02/02 05:43:49;;;;;;;6.35;1.45;;;6.30;83.40;;;;;;4985313;28;20076;-72
2022/02/02 05:49:00;;;;;;;5.07;1.33;;;6.40;83.30;;;;;;4986204;28;20380;-73
2022/02/02 05:51:37;;;;;;;10.50;2.13;;;6.40;83.20;;;;;;4984034;28;20053;-73
2022/02/02 05:54:06;;;;;;;7.00;1.63;;;6.40;83.20;;;;;;4987401;28;20120;-72
2022/02/02 05:56:40;;;;;;;9.60;1.50;;;6.40;83.10;;;;;;5005590;28;20057;-73
2022/02/02 05:59:10;;;;;;;7.00;1.75;;;6.40;83.00;;;;;;5004112;28;20544;-73
2022/02/02 06:01:43;;;;;;;9.75;1.42;;;6.40;82.90;;;;;;5002359;28;20049;-73
2022/02/02 06:04:14;;;;;;;5.65;1.55;;;6.40;83.00;;;;;;5004864;28;20571;-72
2022/02/02 06:06:46;;;;;;;6.30;1.45;;;6.40;83.00;;;;;;5001338;28;20045;-72
2022/02/02 06:09:13;;;;;;;8.75;1.63;;;6.40;83.10;;;;;;4890209;28;20176;-73
2022/02/02 06:11:42;;;;;;;4.65;1.08;;;6.40;83.10;;;;;;1029525;28;10002216;-73
2022/02/02 06:14:10;;;;;;;8.00;1.80;;;6.40;83.00;;;;;;5001777;28;20049;-73
2022/02/02 06:16:40;;;;;;;6.88;1.67;;;6.40;82.90;;;;;;4998871;28;20521;-72
2022/02/02 06:19:06;;;;;;;7.13;1.80;;;6.40;82.90;;;;;;5001545;28;20057;-73
2022/02/02 06:21:36;;;;;;;3.10;1.20;;;6.40;82.80;;;;;;4999197;28;20509;-72
2022/02/02 06:24:11;;;;;;;16.73;1.67;;;6.50;82.60;;;;;;5003729;28;20084;-71
2022/02/02 06:26:39;;;;;;;6.88;2.15;;;6.50;82.60;;;;;;4998758;28;20209;-73
2022/02/02 06:29:08;;;;;;;4.63;1.75;;;6.40;82.60;;;;;;5000967;28;20478;-73
2022/02/02 06:31:37;;;;;;;10.65;1.30;;;6.40;82.80;;;;;;5002795;28;20549;-73
2022/02/02 06:34:07;;;;;;;4.45;1.23;;;6.50;82.60;;;;;;5001864;28;20120;-72
2022/02/02 06:36:36;;;;;;;;;;;6.40;82.70;;;;;;5002294;28;20498;-72
2022/02/02 06:39:05;;;;;;;10.18;1.40;;;6.40;82.60;;;;;;5000492;28;20496;-72
2022/02/02 06:41:32;;;;;;;5.53;0.93;;;6.40;82.50;;;;;;5001478;28;20049;-72
2022/02/02 06:43:59;;;;;;;5.40;1.13;;;6.40;82.40;;;;;;5001926;28;20045;-72
2022/02/02 06:46:32;;;;;;;6.53;1.80;;;6.40;82.40;;;;;;5000176;28;20051;-72
2022/02/02 06:49:00;;;;;;;5.85;1.50;;;6.40;82.30;;;;;;5000057;28;20060;-72
2022/02/02 06:51:34;;;;;;;10.23;2.10;;;6.40;82.00;;;;;;5001432;28;20049;-71
2022/02/02 06:54:07;;;;;;;5.05;1.15;;;6.40;81.70;;;;;;5001821;28;20049;-72
2022/02/02 06:56:46;;;;;;;5.70;1.02;;;6.50;81.60;;;;;;5001910;28;20124;-72
2022/02/02 06:59:38;;;;;;;2.90;1.30;;;6.50;81.60;;;;;;5002005;28;20072;-72
2022/02/02 07:02:25;;;;;;;4.38;0.95;;;6.50;81.50;;;;;;5000395;28;20142;-72
2022/02/02 07:05:10;;;;;;;8.95;1.77;;;6.50;81.10;;;;;;4999678;28;20058;-72
2022/02/02 07:07:57;;;;;;;3.42;0.70;;;6.50;81.20;;;;;;5001442;28;20425;-73
2022/02/02 07:10:43;;;;;;;11.85;2.22;;;6.50;81.40;;;;;;5004221;28;20123;-72
2022/02/02 07:13:24;;;;;;;5.78;1.10;;;6.50;81.40;;;;;;5003610;28;20454;-73
2022/02/02 07:16:06;;;;;;;7.30;2.80;;;6.50;81.40;;;;;;4999951;28;20073;-73
2022/02/02 07:18:42;;;;;;;5.88;1.10;;;6.60;81.10;;;;;;5000266;28;20074;-74
2022/02/02 07:21:23;;;;;;;5.55;1.10;;;6.50;81.20;;;;;;5001285;28;20385;-74
2022/02/02 07:24:10;;;;;;;6.57;1.33;;;6.60;81.30;;;;;;5001900;28;20058;-73
2022/02/02 07:27:13;;;;;;;7.30;1.52;;;6.60;81.40;;;;;;5006193;28;20053;-73
2022/02/02 07:29:49;;;;;;;7.15;1.55;;;6.60;81.50;;;;;;5004164;28;20057;-72
2022/02/02 07:32:20;;;;;;;19.15;3.65;;;6.60;81.80;;;;;;4999598;28;20045;-72
2022/02/02 07:35:02;;;;;;;13.02;2.88;;;6.50;82.00;;;;;;5005506;28;20495;-73
2022/02/02 07:37:33;;;;;;;6.85;3.03;;;6.50;82.10;;;;;;5002124;28;20061;-73
2022/02/02 07:40:04;;;;;;;11.18;2.30;;;6.50;82.30;;;;;;5002388;28;20050;-72
2022/02/02 07:42:33;;;;;;;5.07;1.73;;;6.50;82.50;;;;;;5001207;28;20136;-71
2022/02/02 07:45:06;;;;;;;11.82;2.20;;;6.50;82.70;;;;;;5002181;28;20049;-72
2022/02/02 07:47:35;;;;;;;6.00;1.50;;;6.50;82.90;;;;;;5001626;28;20623;-71
2022/02/02 07:50:05;;;;;;;5.38;1.70;;;6.50;83.00;;;;;;5002626;28;20061;-73
2022/02/02 07:52:33;;;;;;;7.28;1.20;;;6.60;83.10;;;;;;5002176;28;20053;-71
2022/02/02 07:55:04;;;;;;;3.55;1.15;;;6.60;83.40;;;;;;5000057;28;20045;-71
2022/02/02 07:57:31;;;;;;;;;;;6.50;83.60;;;;;;4998992;28;20079;-71
2022/02/02 07:59:59;;;;;;;4.68;1.55;;;6.60;83.60;;;;;;4996679;28;19953;-73
2022/02/02 08:02:39;;;;;;;6.60;1.20;;;6.60;83.70;;;;;;4997375;28;20507;-73
2022/02/02 08:05:09;;;;;;;6.32;1.30;;;6.60;83.70;;;;;;4997755;28;20170;-73
2022/02/02 08:07:41;;;;;;;3.65;0.55;;;6.60;83.50;;;;;;4998652;28;22011;-73
2022/02/02 08:10:20;;;;;;;;;;;6.70;83.10;;;;;;3777290;28;10020001;-73
2022/02/02 08:12:50;;;;;;;6.18;0.98;;;6.60;82.80;;;;;;2066372;28;10002112;-73
2022/02/02 08:15:19;;;;;;;4.73;0.77;;;6.60;82.40;;;;;;5000322;28;20091;-73
2022/02/02 08:17:48;;;;;;;3.05;0.68;;;6.60;82.30;;;;;;4996578;28;21234;-73
2022/02/02 08:20:16;;;;;;;8.02;0.93;;;6.60;82.30;;;;;;4997268;28;20046;-74
2022/02/02 08:22:44;;;;;;;2.72;0.88;;;6.60;82.30;;;;;;4999859;28;20038;-73
2022/02/02 08:25:14;;;;;;;1.55;0.45;;;6.60;82.00;;;;;;5002651;28;20477;-73
2022/02/02 08:27:44;;;;;;;7.75;0.70;;;6.60;81.60;;;;;;4998407;28;20150;-73
2022/02/02 08:30:12;;;;;;;2.17;0.63;;;6.60;81.60;;;;;;4999638;28;20136;-72
2022/02/02 08:32:44;;;;;;;0.85;0.40;;;6.50;81.60;;;;;;4999494;28;20130;-73
2022/02/02 08:35:12;;;;;;;6.30;0.80;;;6.60;81.60;;;;;;5014349;28;20049;-72
2022/02/02 08:37:43;;;;;;;6.80;1.05;;;6.60;81.70;;;;;;4999929;28;20286;-73
2022/02/02 08:40:22;;;;;;;2.00;0.50;;;6.50;81.50;;;;;;4999706;28;20053;-72
2022/02/02 08:42:51;;;;;;;1.38;0.57;;;6.50;81.60;;;;;;5004374;28;20057;-73
2022/02/02 08:45:22;;;;;;;1.33;0.40;;;6.60;81.50;;;;;;5000353;28;20651;-73
2022/02/02 08:47:55;;;;;;;3.67;1.13;;;6.60;81.30;;;;;;5003130;28;20053;-73
2022/02/02 08:50:28;;;;;;;6.30;0.98;;;6.50;81.30;;;;;;4998891;28;20052;-73
2022/02/02 08:53:01;;;;;;;2.35;0.55;;;6.50;81.30;;;;;;5003764;28;20092;-73
2022/02/02 08:58:34;;;;;;;4.13;0.88;;;6.60;81.20;;;;;;4946294;28;20113;-73
2022/02/02 09:01:07;;;;;;;2.50;0.40;;;6.60;80.70;;;;;;4946982;28;20777;-73
2022/02/02 09:06:18;;;;;;;4.03;0.63;;;6.60;80.40;;;;;;5004338;28;20048;-72
2022/02/02 09:08:48;;;;;;;1.63;0.52;;;6.60;80.30;;;;;;5001622;28;20050;-73
2022/02/02 09:25:09;;;;;;;1.50;0.60;;;6.70;79.80;;;;;;5005660;28;20081;-73
2022/02/02 09:35:52;;;;;;;2.45;0.75;;;7.00;78.70;;;;;;5001904;28;20057;-73
2022/02/02 09:38:19;;;;;;;3.15;0.77;;;7.10;78.70;;;;;;5002971;28;20049;-73
2022/02/02 09:41:27;;;;;;;4.70;0.68;;;7.10;78.90;;;;;;5002516;28;20049;-73
2022/02/02 09:43:58;;;;;;;2.35;0.35;;;7.10;78.80;;;;;;5001083;28;20054;-73
2022/02/02 09:46:31;;;;;;;1.75;0.40;;;7.10;78.20;;;;;;5000265;28;20045;-72
2022/02/02 09:49:05;;;;;;;5.95;0.68;;;7.10;77.80;;;;;;5003224;28;20056;-74
2022/02/02 09:51:36;;;;;;;1.63;0.35;;;7.10;78.10;;;;;;5002060;28;20049;-73
2022/02/02 09:54:09;;;;;;;3.45;0.57;;;7.10;78.30;;;;;;4984885;28;20047;-72
2022/02/02 09:56:49;;;;;;;4.65;0.73;;;7.10;78.00;;;;;;4999941;28;20519;-73
2022/02/02 09:59:27;;;;;;;4.20;0.95;;;7.10;77.80;;;;;;5001715;28;20049;-73
2022/02/02 10:02:29;;;;;;;4.00;0.70;;;7.10;77.40;;;;;;5001146;28;20048;-73
2022/02/02 10:05:05;;;;;;;3.50;0.43;;;7.10;77.50;;;;;;4996042;28;20061;-73
2022/02/02 10:07:51;;;;;;;5.72;0.85;;;7.20;77.80;;;;;;4995215;28;20120;-73
2022/02/02 10:10:53;;;;;;;2.30;0.40;;;7.20;77.80;;;;;;3276026;28;10021482;-73
2022/02/02 10:13:24;;;;;;;4.22;0.93;;;7.20;77.70;;;;;;3624758;28;10002331;-73
2022/02/02 10:15:53;;;;;;;11.02;1.67;;;7.30;77.00;;;;;;5004875;28;20049;-73
2022/02/02 10:18:29;;;;;;;4.70;1.20;;;7.20;77.20;;;;;;5008061;28;20158;-73
2022/02/02 10:20:56;;;;;;;5.05;0.47;;;7.30;77.20;;;;;;5006666;28;20049;-73
2022/02/02 10:23:25;;;;;;;6.75;0.82;;;7.30;77.20;;;;;;5008703;28;20042;-73
2022/02/02 10:25:57;;;;;;;1.45;0.60;;;7.30;77.40;;;;;;5007239;28;20545;-71
2022/02/02 10:28:28;;;;;;;2.55;1.33;;;7.30;77.10;;;;;;5005970;28;21627;-74
2022/02/02 10:31:01;;;;;;;2.88;0.60;;;7.40;77.10;;;;;;5007934;28;20337;-73
2022/02/02 10:33:31;;;;;;;5.00;0.80;;;7.40;77.40;;;;;;5008676;28;20053;-72
2022/02/02 10:36:04;;;;;;;3.38;0.98;;;7.40;77.30;;;;;;5008987;28;20054;-73
2022/02/02 10:38:38;;;;;;;6.78;1.00;;;7.50;77.50;;;;;;5004521;28;20046;-73
2022/02/02 10:41:16;;;;;;;3.72;0.52;;;7.60;77.60;;;;;;5000473;28;20744;-73
2022/02/02 10:43:48;;;;;;;4.22;0.75;;;7.60;77.50;;;;;;5002184;28;20053;-74
2022/02/02 10:46:22;;;;;;;6.18;0.55;;;7.70;77.70;;;;;;5003133;28;20053;-74
2022/02/02 10:48:59;;;;;;;4.45;0.75;;;7.70;77.70;;;;;;5000048;28;20643;-73
2022/02/02 10:51:35;;;;;;;4.30;0.40;;;7.80;77.70;;;;;;5001733;28;20075;-75
2022/02/02 10:54:29;;;;;;;5.15;0.93;;;7.80;77.90;;;;;;5001621;28;20041;-74
2022/02/02 10:57:07;;;;;;;1.35;0.80;;;7.80;77.70;;;;;;5002030;28;20596;-74
2022/02/02 11:07:56;;;;;;;3.45;0.50;;;8.10;76.50;;;;;;5004229;28;20053;-74
2022/02/02 11:10:24;;;;;;;2.85;0.60;;;8.10;76.10;;;;;;5005894;28;21618;-73
2022/02/02 11:12:54;;;;;;;3.20;0.57;;;8.20;76.40;;;;;;5005971;28;20064;-72
2022/02/02 11:15:38;;;;;;;4.10;0.75;;;8.20;75.90;;;;;;4987082;28;20192;-72
2022/02/02 11:18:09;;;;;;;3.63;0.47;;;8.20;75.50;;;;;;4998576;28;20562;-73
2022/02/02 11:20:38;;;;;;;6.25;1.85;;;8.20;76.10;;;;;;4999185;28;20057;-73
2022/02/02 11:23:06;;;;;;;2.10;0.68;;;8.10;76.20;;;;;;5000595;28;20045;-72
2022/02/02 11:25:39;;;;;;;5.57;0.57;;;8.20;75.50;;;;;;4998628;28;20041;-73
2022/02/02 11:28:22;;;;;;;5.28;0.90;;;8.20;75.20;;;;;;5000114;28;20548;-73
2022/02/02 11:30:49;;;;;;;2.22;0.70;;;8.20;75.60;;;;;;4997537;28;20718;-75
2022/02/02 11:33:24;;;;;;;5.03;1.00;;;8.10;75.30;;;;;;4997787;28;20053;-73
2022/02/02 11:35:57;;;;;;;3.28;0.70;;;8.20;75.70;;;;;;5000231;28;20057;-71
2022/02/02 11:38:43;;;;;;;5.30;0.93;;;8.20;74.90;;;;;;4999805;28;20050;-73
2022/02/02 11:41:36;;;;;;;3.78;0.90;;;8.10;75.00;;;;;;5000229;28;20052;-72
2022/02/02 11:44:11;;;;;;;2.83;0.50;;;8.10;74.80;;;;;;5000649;28;20048;-73
2022/02/02 11:46:49;;;;;;;1.95;0.50;;;8.20;75.00;;;;;;4996146;28;20418;-72
2022/02/02 11:49:19;;;;;;;2.67;0.43;;;8.10;74.70;;;;;;4998648;28;20136;-72
2022/02/02 11:51:50;;;;;;;2.90;0.98;;;8.10;74.80;;;;;;5000686;28;20128;-74
2022/02/02 11:54:18;;;;;;;7.85;0.55;;;8.10;73.90;;;;;;4999833;28;20467;-71
2022/02/02 11:57:17;;;;;;;5.45;1.00;;;8.20;74.50;;;;;;4999667;28;20077;-72
2022/02/02 11:59:56;;;;;;;1.45;0.45;;;8.10;74.70;;;;;;5001521;28;20063;-73
2022/02/02 12:02:42;;;;;;;2.65;0.50;;;8.10;75.10;;;;;;4998153;28;20045;-73
2022/02/02 12:05:20;;;;;;;4.57;0.60;;;8.20;75.30;;;;;;5001225;28;20133;-73
2022/02/02 12:08:05;;;;;;;4.63;1.38;;;8.20;75.40;;;;;;4998914;28;20077;-75
2022/02/02 12:10:52;;;;;;;0.52;0.15;;;8.20;75.70;;;;;;2978069;28;10002453;-72
2022/02/02 12:19:23;;;;;;;3.72;0.57;;;8.30;76.00;;;;;;5014696;28;20407;-72
2022/02/02 12:36:02;;;;;;;3.33;0.40;;;8.40;73.60;;;;;;5004410;28;20046;-71
2022/02/02 12:47:11;;;;;;;3.78;0.50;;;8.60;72.20;;;;;;5003901;28;20710;-74
2022/02/02 12:50:00;;;;;;;3.58;0.35;;;8.60;72.10;;;;;;5003944;28;20697;-74
2022/02/02 12:58:07;;;;;;;3.47;0.43;;;8.50;72.90;;;;;;5002132;28;20061;-74
2022/02/02 13:00:41;;;;;;;2.95;0.50;;;8.50;72.20;;;;;;5000032;28;20049;-73
2022/02/02 13:03:09;;;;;;;0.65;0.22;;;8.50;72.20;;;;;;5002652;28;20064;-72
2022/02/02 13:05:37;;;;;;;5.63;0.50;;;8.50;71.50;;;;;;5001938;28;20049;-74
2022/02/02 13:08:04;;;;;;;2.42;0.82;;;8.50;70.80;;;;;;5003616;28;20049;-75
2022/02/02 13:10:34;;;;;;;5.05;1.02;;;8.50;71.30;;;;;;4998663;28;22258;-73
2022/02/02 13:13:08;;;;;;;6.90;0.70;;;8.50;70.80;;;;;;5000498;28;20049;-73
2022/02/02 13:15:40;;;;;;;2.45;0.60;;;8.50;71.60;;;;;;5001841;28;20072;-71
2022/02/02 13:18:14;;;;;;;7.40;0.77;;;8.40;71.70;;;;;;5005223;28;21147;-73
2022/02/02 13:20:52;;;;;;;3.60;0.73;;;8.40;72.10;;;;;;5002838;28;20073;-71
2022/02/02 13:23:27;;;;;;;4.07;0.50;;;8.50;72.30;;;;;;5003974;28;20148;-75
2022/02/02 13:25:57;;;;;;;4.20;0.70;;;8.50;72.10;;;;;;5005916;28;20212;-72
2022/02/02 13:28:42;;;;;;;;;;;8.40;72.60;;;;;;5004094;28;20049;-73
2022/02/02 13:31:44;;;;;;;3.90;0.82;;;8.40;72.90;;;;;;5003984;28;20653;-73
2022/02/02 13:34:20;;;;;;;3.50;0.60;;;8.50;72.20;;;;;;5004114;28;20049;-73
2022/02/02 13:45:37;;;;;;;4.75;1.02;;;8.40;71.70;;;;;;5002525;28;20053;-73
2022/02/02 13:48:33;;;;;;;2.28;0.55;;;8.50;71.10;;;;;;5004597;28;20052;-74
2022/02/02 13:54:03;;;;;;;5.45;0.80;;;8.30;74.20;;;;;;5000211;28;20057;-74
2022/02/02 14:05:17;;;;;;;4.20;0.70;;;8.10;76.70;;;;;;4968455;28;20062;-72
2022/02/02 14:07:53;;;;;;;4.78;0.95;;;8.10;77.00;;;;;;4987322;28;20056;-73
2022/02/02 14:10:40;;;;;;;2.70;0.53;;;8.10;77.20;;;;;;3760495;28;10149893;-74
2022/02/02 14:32:26;;;;;;;4.55;0.82;;;8.20;77.30;;;;;;5006300;28;20475;-72
2022/02/02 14:34:54;;;;;;;4.32;1.00;;;8.20;77.20;;;;;;5011836;28;20136;-76
2022/02/02 14:37:27;;;;;;;2.00;0.63;;;8.20;77.00;;;;;;5009736;28;20370;-73
2022/02/02 14:39:58;;;;;;;5.22;1.63;;;8.20;76.80;;;;;;5007063;28;20060;-73
2022/02/02 14:42:30;;;;;;;6.90;1.30;;;8.20;76.80;;;;;;5008958;28;20433;-73
2022/02/02 14:45:03;;;;;;;5.57;1.65;;;8.20;76.90;;;;;;5008113;28;20137;-74
2022/02/02 14:47:36;;;;;;;5.53;1.00;;;8.30;76.70;;;;;;5005670;28;22033;-72
2022/02/02 14:50:12;;;;;;;5.05;0.93;;;8.30;76.60;;;;;;5004667;28;20500;-71
2022/02/02 14:52:51;;;;;;;3.25;0.93;;;8.30;76.70;;;;;;4991253;28;20049;-74
2022/02/02 15:28:44;;;;;;;7.80;1.48;;;8.20;71.90;;;;;;5001061;28;20053;-74
2022/02/02 15:31:11;;;;;;;3.55;1.05;;;8.20;71.30;;;;;;5000405;28;20115;-73
2022/02/02 15:33:38;;;;;;;3.03;0.98;;;8.20;71.10;;;;;;5001848;28;20049;-73
2022/02/02 15:36:31;;;;;;;8.82;1.67;;;8.20;71.00;;;;;;5008605;28;20377;-74
2022/02/02 15:39:06;;;;;;;3.15;0.68;;;8.10;70.90;;;;;;5002985;28;20349;-73
2022/02/02 15:41:41;;;;;;;3.78;0.70;;;8.10;71.30;;;;;;4999666;28;20046;-73
2022/02/02 15:55:29;;;;;;;3.40;0.77;;;7.90;71.40;;;;;;5003546;28;20083;-72
2022/02/02 15:58:10;;;;;;;0.60;0.40;;;7.80;71.40;;;;;;5001354;28;20200;-73
2022/02/02 16:03:26;;;;;;;3.33;1.20;;;7.80;71.30;;;;;;5003812;28;20056;-74
2022/02/02 16:05:58;;;;;;;6.78;1.25;;;7.70;71.60;;;;;;5002075;28;20064;-72
2022/02/02 16:08:27;;;;;;;2.30;0.55;;;7.70;71.40;;;;;;4973147;28;20459;-72
2022/02/02 16:11:20;;;;;;;1.57;0.58;;;7.70;71.50;;;;;;4436051;28;10003345;-73
2022/02/02 16:13:50;;;;;;;4.55;0.75;;;7.70;71.50;;;;;;1723115;28;10002039;-72
2022/02/02 16:16:39;;;;;;;3.33;0.80;;;7.70;71.60;;;;;;5000768;28;20518;-71
2022/02/02 16:19:15;;;;;;;5.95;0.90;;;7.70;71.70;;;;;;4999836;28;20472;-72
2022/02/02 16:24:49;;;;;;;5.20;1.40;;;7.70;71.40;;;;;;4999217;28;20183;-73
2022/02/02 16:33:29;;;;;;;6.90;0.88;;;7.50;71.60;;;;;;4999025;28;20050;-73
2022/02/02 16:38:39;;;;;;;2.50;0.50;;;7.50;71.90;;;;;;4995023;28;20049;-73
2022/02/02 16:42:55;;;;;;;;;;;7.40;72.20;;;;;;5000879;28;20050;-73
2022/02/02 16:43:53;;;;;;;3.00;0.98;;;7.30;72.50;;;;;;4997669;28;19925;-74
2022/02/02 16:46:20;;;;;;;3.65;0.85;;;7.30;72.80;;;;;;4994796;28;20064;-74
2022/02/02 16:48:48;;;;;;;3.25;1.02;;;7.20;73.10;;;;;;4996562;28;20256;-73
2022/02/02 16:51:15;;;;;;;2.92;0.93;;;7.20;73.40;;;;;;5016066;28;20057;-72
2022/02/02 16:53:47;;;;;;;5.57;1.48;;;7.20;73.50;;;;;;4998821;28;20060;-74
2022/02/02 16:56:23;;;;;;;3.47;1.20;;;7.10;73.80;;;;;;5002596;28;20045;-73
2022/02/02 17:31:51;;;;;;;8.15;2.60;;;6.60;75.50;;;;;;5004441;28;20100;-72
2022/02/02 17:34:25;;;;;;;6.05;2.22;;;6.50;75.70;;;;;;5003840;28;20053;-72
2022/02/02 17:36:59;;;;;;;5.60;2.60;;;6.50;75.80;;;;;;5004731;28;20042;-73
2022/02/02 17:39:36;;;;;;;5.15;2.65;;;6.40;76.00;;;;;;5006312;28;20057;-75
2022/02/02 17:42:34;;;;;;;5.88;2.45;;;6.40;76.10;;;;;;5008208;28;20769;-72
2022/02/02 17:56:27;;;;;;;6.85;2.72;;;6.20;76.90;;;;;;4990641;28;20489;-72
2022/02/02 18:16:55;;;;;;;5.85;2.88;;;5.90;77.50;;;;;;5054876;28;20448;-73
2022/02/02 18:19:07;;;;;;;5.45;2.50;;;5.90;77.70;;;;;;5059324;28;20056;-72
2022/02/02 18:21:36;;;;;;;7.25;3.42;;;5.90;77.80;;;;;;5060463;28;20059;-75
2022/02/02 18:24:08;;;;;;;6.28;2.78;;;5.90;77.90;;;;;;5067760;28;20384;-72
2022/02/02 18:26:41;;;;;;;5.40;2.60;;;5.80;78.10;;;;;;5082371;27;20036;-70
2022/02/02 18:29:14;;;;;;;8.88;2.50;;;5.80;78.30;;;;;;5083475;27;20052;-72
2022/02/02 18:32:05;;;;;;;8.90;2.53;;;5.90;78.40;;;;;;5086966;28;20048;-74
2022/02/02 18:34:40;;;;;;;5.15;2.50;;;5.90;78.30;;;;;;5087077;28;20167;-74
2022/02/02 18:46:17;;;;;;;3.75;1.55;;;5.70;78.30;;;;;;5076316;28;20381;-72
2022/02/02 18:48:47;;;;;;;6.00;1.60;;;5.70;78.30;;;;;;5073476;28;20649;-71
2022/02/02 18:51:40;;;;;;;2.40;1.23;;;5.70;78.20;;;;;;5072907;28;20435;-73
2022/02/02 18:54:20;;;;;;;2.97;1.30;;;5.60;78.30;;;;;;5072815;28;20175;-73
2022/02/02 18:57:00;;;;;;;4.25;1.17;;;5.60;78.40;;;;;;5074423;28;20113;-73
2022/02/02 18:59:48;;;;;;;5.53;1.15;;;5.60;78.30;;;;;;5078309;28;20115;-74
2022/02/02 19:02:35;;;;;;;1.45;0.82;;;5.50;78.40;;;;;;5070846;28;20180;-73
2022/02/02 19:05:22;;;;;;;3.33;1.42;;;5.40;78.30;;;;;;5072782;28;20048;-72
2022/02/02 20:01:43;;;;;;;3.55;0.85;;;4.80;79.00;;;;;;5060349;28;20056;-73
2022/02/02 20:03:29;;;;;;;5.90;0.90;;;4.70;79.10;;;;;;5059952;28;20056;-74
2022/02/02 20:06:07;;;;;;;3.20;0.90;;;4.70;79.10;;;;;;5059995;28;20948;-73
2022/02/02 20:08:46;;;;;;;2.83;1.13;;;4.70;79.00;;;;;;4851730;28;10000489;-72
2022/02/02 20:11:19;;;;;;;4.70;1.40;;;4.70;79.20;;;;;;690848;28;10001899;-73
2022/02/02 20:13:46;;;;;;;5.85;2.58;;;4.60;79.20;;;;;;5024640;28;20588;-74
2022/02/02 20:16:13;;;;;;;2.70;1.20;;;4.60;79.40;;;;;;5021138;28;20049;-74
2022/02/02 20:18:43;;;;;;;6.05;2.08;;;4.60;79.30;;;;;;5021560;28;20164;-74
2022/02/02 20:21:15;;;;;;;5.95;2.17;;;4.60;79.40;;;;;;5018770;28;20112;-72
2022/02/02 20:23:45;;;;;;;3.72;1.33;;;4.60;79.20;;;;;;5020447;28;20049;-73
2022/02/02 20:26:15;;;;;;;8.67;1.97;;;4.50;79.30;;;;;;5023354;28;20444;-76
2022/02/02 20:28:42;;;;;;;3.83;1.20;;;4.50;79.30;;;;;;5024656;28;20459;-74
2022/02/02 20:31:09;;;;;;;7.80;1.75;;;4.50;79.20;;;;;;5024005;28;20105;-72
2022/02/02 20:33:36;;;;;;;5.70;2.03;;;4.50;79.10;;;;;;5023464;28;20595;-75
2022/02/02 20:36:04;;;;;;;4.45;1.35;;;4.40;79.20;;;;;;5024163;28;20044;-75
2022/02/02 20:38:32;;;;;;;2.50;1.20;;;4.40;79.20;;;;;;5033210;28;20051;-74
2022/02/02 20:41:00;;;;;;;5.80;1.50;;;4.40;79.20;;;;;;5048454;28;20451;-75
2022/02/02 20:43:33;;;;;;;3.90;1.42;;;4.30;79.30;;;;;;5018834;28;21578;-73
2022/02/02 21:10:52;;;;;;;5.15;1.05;;;4.10;79.40;;;;;;5018096;28;20045;-74
2022/02/02 21:16:05;;;;;;;6.43;0.88;;;4.00;79.50;;;;;;5018113;28;20106;-73
2022/02/02 21:18:35;;;;;;;5.20;1.45;;;4.00;79.50;;;;;;5019070;28;20134;-74
2022/02/02 21:21:06;;;;;;;4.03;1.40;;;4.00;79.60;;;;;;5013900;28;20049;-72
2022/02/02 21:23:44;;;;;;;4.03;0.93;;;4.00;79.60;;;;;;5015437;28;20428;-73
2022/02/02 21:26:35;;;;;;;5.20;1.45;;;4.00;79.60;;;;;;5013465;28;20936;-74
2022/02/02 21:29:02;;;;;;;;;;;3.90;79.60;;;;;;5015758;28;20056;-74